createdAt,value
2019-02-25T09:59:25.602Z,27.70
2019-02-25T10:01:54.576Z,16.90
2019-02-25T10:04:23.696Z,13.30
2019-02-25T10:07:01.992Z,11.50
2019-02-25T10:09:29.624Z,10.50
2019-02-25T10:11:53.740Z,10.00
2019-02-25T10:14:23.015Z,9.80
2019-02-25T10:16:53.884Z,9.80
2019-02-25T10:19:22.570Z,9.70
2019-02-25T10:21:51.538Z,9.70
2019-02-25T10:24:20.769Z,9.70
2019-02-25T10:26:49.775Z,9.70
2019-02-25T10:29:18.773Z,9.60
2019-02-25T10:31:47.741Z,9.70
2019-02-25T10:34:18.026Z,9.70
2019-02-25T10:36:48.153Z,9.90
2019-02-25T10:39:18.272Z,10.10
2019-02-25T10:41:48.552Z,10.20
2019-02-25T10:44:17.518Z,10.10
2019-02-25T10:46:46.948Z,10.30
2019-02-25T10:49:18.111Z,10.40
2019-02-25T10:51:47.072Z,10.60
2019-02-25T10:54:16.991Z,10.60
2019-02-25T10:56:49.824Z,10.60
2019-02-25T10:59:19.711Z,10.60
2019-02-25T11:01:48.657Z,10.80
2019-02-25T11:04:19.537Z,10.80
2019-02-25T11:06:48.481Z,10.90
2019-02-25T11:09:28.802Z,11.00
2019-02-25T11:11:59.955Z,11.00
2019-02-25T11:14:28.399Z,11.00
2019-02-25T11:16:57.760Z,11.00
2019-02-25T11:19:28.501Z,11.20
2019-02-25T11:21:57.403Z,11.10
2019-02-25T11:24:26.736Z,11.20
2019-02-25T11:26:56.959Z,11.30
2019-02-25T11:29:26.623Z,11.10
2019-02-25T11:31:55.725Z,11.10
2019-02-25T11:34:24.745Z,11.10
2019-02-25T11:36:55.503Z,11.40
2019-02-25T11:39:25.270Z,11.40
2019-02-25T11:41:55.201Z,11.40
2019-02-25T11:44:25.936Z,11.30
2019-02-25T11:46:54.760Z,11.10
2019-02-25T11:49:23.841Z,11.50
2019-02-25T11:51:53.146Z,11.60
2019-02-25T11:54:22.206Z,11.70
2019-02-25T11:56:51.245Z,11.70
2019-02-25T11:59:20.269Z,11.70
2019-02-25T12:01:49.274Z,11.60
2019-02-25T12:04:18.289Z,11.50
2019-02-25T12:06:47.590Z,11.70
2019-02-25T12:09:16.834Z,11.90
2019-02-25T12:11:45.806Z,11.80
2019-02-25T12:14:14.802Z,11.90
2019-02-25T12:16:43.849Z,12.10
2019-02-25T12:19:17.858Z,12.00
2019-02-25T12:21:43.737Z,11.80
2019-02-25T12:24:12.717Z,11.70
2019-02-25T12:26:41.711Z,11.90
2019-02-25T12:29:11.190Z,12.00
2019-02-25T12:31:40.216Z,12.10
2019-02-25T12:34:09.732Z,12.10
2019-02-25T12:36:38.705Z,12.20
2019-02-25T12:39:07.877Z,12.20
2019-02-25T12:41:36.914Z,12.20
2019-02-25T12:44:05.883Z,12.20
2019-02-25T12:46:34.878Z,12.40
2019-02-25T12:49:04.109Z,12.50
2019-02-25T12:51:33.073Z,12.50
2019-02-25T12:54:02.061Z,12.50
2019-02-25T12:56:31.154Z,12.60
2019-02-25T12:59:00.142Z,12.60
2019-02-25T13:01:29.115Z,12.50
2019-02-25T13:03:58.109Z,12.50
2019-02-25T13:06:27.103Z,12.60
2019-02-25T13:08:56.386Z,12.90
2019-02-25T13:11:25.704Z,13.10
2019-02-25T13:13:54.747Z,13.10
2019-02-25T13:16:23.843Z,13.10
2019-02-25T13:18:52.844Z,13.10
2019-02-25T13:21:22.130Z,13.20
2019-02-25T13:23:51.117Z,13.30
2019-02-25T13:26:20.088Z,13.30
2019-02-25T13:28:49.517Z,13.30
2019-02-25T13:31:18.699Z,13.30
2019-02-25T13:33:47.802Z,13.10
2019-02-25T13:36:16.770Z,13.30
2019-02-25T13:38:46.003Z,13.30
2019-02-25T13:41:15.044Z,13.40
2019-02-25T13:43:44.008Z,13.20
2019-02-25T13:46:13.042Z,13.40
2019-02-25T13:48:42.108Z,13.50
2019-02-25T13:51:11.312Z,13.60
2019-02-25T13:53:40.354Z,13.50
2019-02-25T13:56:09.329Z,13.50
2019-02-25T13:58:38.393Z,13.60
2019-02-25T14:01:07.462Z,13.60
2019-02-25T14:03:36.680Z,13.90
2019-02-25T14:06:05.933Z,13.80
2019-02-25T14:08:39.579Z,13.70
2019-02-25T14:11:08.930Z,13.90
2019-02-25T14:13:37.907Z,13.80
2019-02-25T14:16:06.937Z,13.80
2019-02-25T14:18:36.061Z,13.80
2019-02-25T14:21:05.291Z,13.60
2019-02-25T14:23:34.359Z,13.60
2019-02-25T14:26:03.610Z,13.70
2019-02-25T14:28:32.599Z,13.80
2019-02-25T14:31:01.647Z,13.60
2019-02-25T14:33:30.669Z,13.50
2019-02-25T14:36:00.214Z,13.40
2019-02-25T14:38:30.463Z,13.30
2019-02-25T14:41:01.905Z,13.40
2019-02-25T14:43:31.213Z,13.50
2019-02-25T14:48:27.946Z,13.40
2019-02-25T14:50:56.832Z,13.40
2019-02-25T14:53:26.042Z,13.40
2019-02-25T14:55:56.021Z,13.20
2019-02-25T14:58:25.762Z,13.10
2019-02-25T15:00:57.944Z,13.00
2019-02-25T15:03:29.169Z,13.00
2019-02-25T15:05:59.238Z,13.00
2019-02-25T15:08:30.480Z,13.10
2019-02-25T15:11:01.970Z,13.00
2019-02-25T15:13:30.324Z,13.00
2019-02-25T15:16:00.751Z,13.10
2019-02-25T15:18:31.260Z,13.20
2019-02-25T15:21:02.540Z,13.30
2019-02-25T15:23:31.335Z,13.20
2019-02-25T15:26:05.425Z,13.10
2019-02-25T15:28:32.079Z,13.10
2019-02-25T15:31:04.115Z,13.20
2019-02-25T15:33:33.621Z,13.50
2019-02-25T15:36:02.784Z,13.40
2019-02-25T15:38:33.112Z,13.50
2019-02-25T15:41:04.581Z,13.40
2019-02-25T15:43:33.395Z,13.50
2019-02-25T15:46:02.627Z,13.30
2019-02-25T15:48:32.858Z,13.30
2019-02-25T15:51:02.263Z,13.40
2019-02-25T15:53:31.432Z,13.30
2019-02-25T15:56:01.413Z,13.30
2019-02-25T15:58:32.082Z,13.40
2019-02-25T16:01:01.612Z,13.40
2019-02-25T16:03:32.203Z,13.30
2019-02-25T16:06:03.431Z,13.40
2019-02-25T16:08:33.439Z,13.40
2019-02-25T16:11:02.557Z,13.20
2019-02-25T16:13:31.570Z,13.20
2019-02-25T16:16:00.884Z,13.20
2019-02-25T16:18:30.191Z,13.20
2019-02-25T16:20:59.714Z,13.00
2019-02-25T16:23:30.197Z,12.90
2019-02-25T16:25:59.965Z,12.70
2019-02-25T16:28:29.542Z,12.70
2019-02-25T16:30:59.811Z,12.70
2019-02-25T16:33:30.399Z,12.70
2019-02-25T16:36:01.284Z,12.40
2019-02-25T16:38:31.971Z,12.20
2019-02-25T16:41:03.110Z,12.00
2019-02-25T16:43:31.859Z,12.00
2019-02-25T16:46:02.031Z,12.00
2019-02-25T16:48:32.636Z,11.90
2019-02-25T16:51:02.708Z,11.80
2019-02-25T16:53:36.930Z,11.60
2019-02-25T16:56:05.087Z,11.70
2019-02-25T16:58:34.262Z,11.60
2019-02-25T17:01:06.002Z,11.40
2019-02-25T17:03:37.612Z,11.10
2019-02-25T17:06:07.394Z,11.00
2019-02-25T17:08:38.219Z,10.80
2019-02-25T17:11:07.307Z,10.50
2019-02-25T17:13:37.190Z,10.30
2019-02-25T17:16:17.906Z,10.20
2019-02-25T17:18:38.406Z,10.10
2019-02-25T17:21:07.590Z,10.00
2019-02-25T17:23:40.453Z,9.80
2019-02-25T17:26:12.450Z,9.70
2019-02-25T17:28:40.863Z,9.60
2019-02-25T17:31:11.521Z,9.50
2019-02-25T17:33:40.384Z,9.40
2019-02-25T17:36:10.244Z,9.40
2019-02-25T17:38:41.027Z,9.30
2019-02-25T17:41:13.046Z,9.30
2019-02-25T17:43:43.009Z,9.10
2019-02-25T17:46:14.048Z,8.90
2019-02-25T17:48:43.412Z,8.80
2019-02-25T17:51:12.401Z,8.70
2019-02-25T17:53:41.390Z,8.70
2019-02-25T17:56:10.376Z,8.60
2019-02-25T17:58:40.321Z,8.60
2019-02-25T18:01:10.122Z,8.80
2019-02-25T18:03:39.645Z,9.00
2019-02-25T18:06:09.637Z,9.10
2019-02-25T18:08:39.414Z,9.00
2019-02-25T18:11:08.534Z,8.80
2019-02-25T18:13:37.561Z,8.50
2019-02-25T18:16:08.565Z,8.30
2019-02-25T18:18:39.175Z,8.20
2019-02-25T18:21:08.329Z,8.10
2019-02-25T18:23:38.256Z,8.00
2019-02-25T18:26:07.232Z,8.10
2019-02-25T18:28:37.438Z,8.20
2019-02-25T18:31:09.073Z,8.30
2019-02-25T18:33:37.758Z,8.40
2019-02-25T18:36:08.857Z,8.60
2019-02-25T18:38:38.081Z,8.60
2019-02-25T18:41:09.135Z,8.60
2019-02-25T18:43:37.940Z,8.60
2019-02-25T18:46:07.318Z,8.60
2019-02-25T18:48:36.406Z,8.70
2019-02-25T18:51:05.399Z,8.80
2019-02-25T18:53:34.710Z,8.90
2019-02-25T18:56:05.948Z,9.00
2019-02-25T18:58:35.436Z,9.00
2019-02-25T19:01:06.923Z,8.80
2019-02-25T19:03:36.244Z,9.00
2019-02-25T19:06:05.280Z,9.00
2019-02-25T19:08:34.259Z,9.10
2019-02-25T19:11:03.447Z,9.10
2019-02-25T19:13:33.389Z,9.20
2019-02-25T19:16:03.541Z,9.10
2019-02-25T19:18:34.455Z,9.20
2019-02-25T19:21:04.393Z,9.20
2019-02-25T19:23:36.928Z,9.20
2019-02-25T19:26:04.436Z,9.20
2019-02-25T19:28:33.531Z,9.30
2019-02-25T19:31:03.684Z,9.20
2019-02-25T19:33:36.538Z,9.10
2019-02-25T19:36:05.076Z,9.10
2019-02-25T19:38:36.707Z,9.10
2019-02-25T19:41:05.384Z,9.00
2019-02-25T19:43:34.647Z,8.90
2019-02-25T19:46:05.829Z,9.10
2019-02-25T19:48:34.496Z,9.00
2019-02-25T19:51:08.893Z,8.70
2019-02-25T19:53:38.923Z,8.70
2019-02-25T19:56:08.446Z,8.50
2019-02-25T19:58:39.259Z,8.10
2019-02-25T20:01:09.137Z,7.90
2019-02-25T20:03:40.053Z,7.70
2019-02-25T20:06:13.891Z,7.50
2019-02-25T20:08:40.677Z,7.40
2019-02-25T20:11:12.285Z,7.30
2019-02-25T20:13:42.980Z,7.10
2019-02-25T20:16:15.759Z,7.10
2019-02-25T20:18:42.321Z,7.00
2019-02-25T20:21:11.470Z,7.10
2019-02-25T20:23:40.640Z,7.20
2019-02-25T20:26:13.324Z,7.10
2019-02-25T20:28:41.317Z,6.90
2019-02-25T20:31:12.612Z,7.00
2019-02-25T20:33:42.501Z,7.10
2019-02-25T20:36:11.708Z,7.40
2019-02-25T20:38:40.814Z,7.40
2019-02-25T20:41:10.478Z,7.50
2019-02-25T20:43:39.406Z,7.40
2019-02-25T20:46:08.725Z,7.50
2019-02-25T20:48:38.064Z,7.60
2019-02-25T20:51:07.787Z,7.50
2019-02-25T20:53:40.402Z,7.40
2019-02-25T20:56:09.390Z,7.40
2019-02-25T20:58:40.067Z,7.30
2019-02-25T21:01:09.839Z,7.20
2019-02-25T21:03:43.838Z,7.10
2019-02-25T21:06:12.171Z,7.20
2019-02-25T21:08:42.425Z,7.00
2019-02-25T21:11:13.504Z,6.90
2019-02-25T21:13:43.009Z,6.90
2019-02-25T21:16:12.110Z,7.00
2019-02-25T21:18:41.246Z,7.00
2019-02-25T21:21:14.474Z,6.90
2019-02-25T21:23:43.447Z,6.90
2019-02-25T21:26:12.405Z,6.80
2019-02-25T21:28:42.901Z,6.80
2019-02-25T21:31:13.905Z,6.80
2019-02-25T21:33:45.144Z,6.80
2019-02-25T21:36:13.232Z,6.80
2019-02-25T21:38:42.241Z,6.70
2019-02-25T21:41:13.258Z,6.50
2019-02-25T21:43:43.551Z,6.50
2019-02-25T21:46:17.855Z,6.50
2019-02-25T21:48:44.548Z,6.60
2019-02-25T21:51:14.218Z,6.60
2019-02-25T21:53:43.370Z,6.60
2019-02-25T21:56:12.542Z,6.90
2019-02-25T21:58:42.918Z,7.00
2019-02-25T22:01:12.201Z,7.20
2019-02-25T22:03:41.435Z,7.20
2019-02-25T22:06:12.120Z,7.30
2019-02-25T22:08:41.302Z,7.30
2019-02-25T22:11:14.786Z,7.30
2019-02-25T22:13:41.279Z,7.20
2019-02-25T22:16:10.283Z,7.00
2019-02-25T22:18:39.745Z,7.00
2019-02-25T22:21:09.426Z,6.90
2019-02-25T22:23:39.283Z,6.80
2019-02-25T22:26:08.299Z,6.80
2019-02-25T22:28:39.345Z,6.70
2019-02-25T22:31:08.901Z,6.50
2019-02-25T22:33:38.652Z,6.40
2019-02-25T22:36:07.632Z,6.30
2019-02-25T22:38:36.676Z,6.20
2019-02-25T22:41:05.720Z,6.10
2019-02-25T22:43:36.739Z,6.20
2019-02-25T22:46:07.261Z,6.20
2019-02-25T22:48:37.659Z,6.10
2019-02-25T22:51:07.038Z,6.00
2019-02-25T22:53:36.184Z,6.10
2019-02-25T22:56:08.934Z,6.00
2019-02-25T22:58:36.644Z,6.10
2019-02-25T23:01:09.213Z,6.10
2019-02-25T23:03:41.005Z,5.90
2019-02-25T23:06:11.248Z,5.80
2019-02-25T23:08:42.061Z,5.80
2019-02-25T23:11:12.286Z,5.70
2019-02-25T23:13:40.876Z,5.70
2019-02-25T23:16:09.935Z,5.70
2019-02-25T23:18:39.151Z,5.70
2019-02-25T23:21:08.219Z,5.80
2019-02-25T23:23:38.457Z,5.80
2019-02-25T23:26:07.756Z,5.80
2019-02-25T23:28:36.791Z,5.60
2019-02-25T23:31:05.782Z,5.40
2019-02-25T23:33:38.189Z,5.50
2019-02-25T23:36:05.372Z,5.50
2019-02-25T23:38:34.454Z,5.50
2019-02-25T23:41:05.306Z,5.40
2019-02-25T23:43:37.981Z,5.40
2019-02-25T23:46:06.461Z,5.50
2019-02-25T23:48:36.413Z,5.50
2019-02-25T23:51:05.960Z,5.30
2019-02-25T23:53:35.222Z,5.10
2019-02-25T23:56:04.177Z,5.00
2019-02-25T23:58:33.471Z,5.00
